createdAt,value
2017-12-15T00:01:41.595Z,3.43
2017-12-15T00:03:45.033Z,4.20
2017-12-15T00:05:49.247Z,3.90
2017-12-15T00:07:52.733Z,2.30
2017-12-15T00:09:56.188Z,4.87
2017-12-15T00:11:59.693Z,2.50
2017-12-15T00:14:03.145Z,5.70
2017-12-15T00:16:06.607Z,4.00
2017-12-15T00:18:10.063Z,6.23
2017-12-15T00:20:13.538Z,3.50
2017-12-15T00:22:17.774Z,5.03
2017-12-15T00:24:21.293Z,3.10
2017-12-15T00:26:24.763Z,3.53
2017-12-15T00:28:28.269Z,3.70
2017-12-15T00:30:31.710Z,2.33
2017-12-15T00:32:35.916Z,7.30
2017-12-15T00:34:39.366Z,3.83
2017-12-15T00:36:42.796Z,7.90
2017-12-15T00:38:46.255Z,2.40
2017-12-15T00:40:49.745Z,2.20
2017-12-15T00:42:53.163Z,2.67
2017-12-15T00:44:56.605Z,2.57
2017-12-15T00:47:00.045Z,4.20
2017-12-15T00:49:03.488Z,5.77
2017-12-15T00:51:06.945Z,2.93
2017-12-15T00:53:10.383Z,4.13
2017-12-15T00:55:13.894Z,2.00
2017-12-15T00:57:18.164Z,2.00
2017-12-15T00:59:21.616Z,2.10
2017-12-15T01:01:25.064Z,1.73
2017-12-15T01:03:28.511Z,1.93
2017-12-15T01:05:31.997Z,2.20
2017-12-15T01:07:35.409Z,2.00
2017-12-15T01:09:38.896Z,2.90
2017-12-15T01:11:42.323Z,1.87
2017-12-15T01:13:45.756Z,2.13
2017-12-15T01:15:49.248Z,2.57
2017-12-15T01:17:52.695Z,5.13
2017-12-15T01:19:57.886Z,5.53
2017-12-15T01:22:01.663Z,3.70
2017-12-15T01:24:05.852Z,3.27
2017-12-15T01:26:09.310Z,7.03
2017-12-15T01:28:12.729Z,2.47
2017-12-15T01:30:16.206Z,4.50
2017-12-15T01:32:19.653Z,1.90
2017-12-15T01:34:23.092Z,6.20
2017-12-15T01:36:26.565Z,9.03
2017-12-15T01:38:29.971Z,1.90
2017-12-15T01:40:33.417Z,5.10
2017-12-15T01:42:37.638Z,3.97
2017-12-15T01:44:41.078Z,3.00
2017-12-15T01:46:44.561Z,2.53
2017-12-15T01:48:48.015Z,2.63
2017-12-15T01:50:51.454Z,1.70
2017-12-15T01:52:54.875Z,2.03
2017-12-15T01:54:58.376Z,2.33
2017-12-15T01:57:02.624Z,3.30
2017-12-15T01:59:07.590Z,2.47
2017-12-15T02:01:11.044Z,2.63
2017-12-15T02:03:14.493Z,2.70
2017-12-15T02:05:18.686Z,2.47
2017-12-15T02:07:22.134Z,2.60
2017-12-15T02:09:26.307Z,2.87
2017-12-15T02:11:29.746Z,5.70
2017-12-15T02:13:33.161Z,2.90
2017-12-15T02:15:36.595Z,2.50
2017-12-15T02:17:40.110Z,2.23
2017-12-15T02:19:44.299Z,2.60
2017-12-15T02:21:47.749Z,2.23
2017-12-15T02:23:51.192Z,8.33
2017-12-15T02:25:54.623Z,2.10
2017-12-15T02:27:58.079Z,2.33
2017-12-15T02:30:02.280Z,4.47
2017-12-15T02:32:05.706Z,3.70
2017-12-15T02:34:09.192Z,5.00
2017-12-15T02:36:13.405Z,4.10
2017-12-15T02:38:17.656Z,3.53
2017-12-15T02:40:21.049Z,3.40
2017-12-15T02:42:24.460Z,3.60
2017-12-15T02:44:28.197Z,4.57
2017-12-15T02:46:32.389Z,4.63
2017-12-15T02:48:35.839Z,2.90
2017-12-15T02:50:39.271Z,3.40
2017-12-15T02:52:43.522Z,3.80
2017-12-15T02:54:47.003Z,3.33
2017-12-15T02:56:50.410Z,4.10
2017-12-15T02:58:54.663Z,3.93
2017-12-15T03:00:58.072Z,4.10
2017-12-15T03:03:01.503Z,4.43
2017-12-15T03:05:05.758Z,3.70
2017-12-15T03:07:09.195Z,6.10
2017-12-15T03:09:13.459Z,3.63
2017-12-15T03:11:16.936Z,7.00
2017-12-15T03:13:20.383Z,4.03
2017-12-15T03:15:24.621Z,2.80
2017-12-15T03:17:28.784Z,3.47
2017-12-15T03:19:32.199Z,4.50
2017-12-15T03:21:35.691Z,6.50
2017-12-15T03:23:39.127Z,4.70
2017-12-15T03:25:42.569Z,3.50
2017-12-15T03:27:46.019Z,5.00
2017-12-15T03:29:49.502Z,3.27
2017-12-15T03:31:53.688Z,4.70
2017-12-15T03:33:57.125Z,3.87
2017-12-15T03:36:00.577Z,3.13
2017-12-15T03:38:04.013Z,3.07
2017-12-15T03:40:07.480Z,8.73
2017-12-15T03:42:10.982Z,8.50
2017-12-15T03:44:15.153Z,4.43
2017-12-15T03:46:18.594Z,6.13
2017-12-15T03:48:22.762Z,3.43
2017-12-15T03:50:26.202Z,5.40
2017-12-15T03:52:29.706Z,5.23
2017-12-15T03:54:35.944Z,6.90
2017-12-15T03:58:49.573Z,6.73
2017-12-15T04:00:53.789Z,12.57
2017-12-15T04:02:58.033Z,5.40
2017-12-15T04:05:01.535Z,4.83
2017-12-15T04:07:04.977Z,7.50
2017-12-15T04:09:08.387Z,4.60
2017-12-15T04:11:11.835Z,5.60
2017-12-15T04:13:15.277Z,3.27
2017-12-15T04:15:18.721Z,4.77
2017-12-15T04:17:22.197Z,4.17
2017-12-15T04:19:26.309Z,3.47
2017-12-15T04:21:29.797Z,4.47
2017-12-15T04:23:33.261Z,7.23
2017-12-15T04:25:37.488Z,8.93
2017-12-15T04:27:40.941Z,9.20
2017-12-15T04:29:44.435Z,5.40
2017-12-15T04:31:48.652Z,9.97
2017-12-15T04:33:52.365Z,10.80
2017-12-15T04:35:55.803Z,6.60
2017-12-15T04:37:59.295Z,7.47
2017-12-15T04:40:03.589Z,12.50
2017-12-15T04:42:07.081Z,10.50
2017-12-15T04:44:10.607Z,9.77
2017-12-15T04:46:14.902Z,12.80
2017-12-15T04:48:18.419Z,8.17
2017-12-15T04:50:21.914Z,7.30
2017-12-15T04:52:25.365Z,16.07
2017-12-15T04:54:29.590Z,7.53
2017-12-15T04:56:33.038Z,9.97
2017-12-15T04:58:37.265Z,15.60
2017-12-15T05:00:41.565Z,16.77
2017-12-15T05:02:45.047Z,7.57
2017-12-15T05:04:48.539Z,8.80
2017-12-15T05:06:51.978Z,9.50
2017-12-15T05:08:55.423Z,8.87
2017-12-15T05:10:58.936Z,11.40
2017-12-15T05:13:02.400Z,10.97
2017-12-15T05:15:05.946Z,11.43
2017-12-15T05:17:09.923Z,5.03
2017-12-15T05:19:13.421Z,18.17
2017-12-15T05:21:16.887Z,5.30
2017-12-15T05:23:21.157Z,3.90
2017-12-15T05:25:24.780Z,10.40
2017-12-15T05:27:28.266Z,7.87
2017-12-15T05:29:31.821Z,10.03
2017-12-15T05:31:35.331Z,2.73
2017-12-15T05:33:39.648Z,8.20
2017-12-15T05:35:43.890Z,9.00
2017-12-15T05:37:47.350Z,5.70
2017-12-15T05:39:50.779Z,6.80
2017-12-15T05:41:54.704Z,3.93
2017-12-15T05:43:58.158Z,5.83
2017-12-15T05:46:02.621Z,6.93
2017-12-15T05:48:06.156Z,5.40
2017-12-15T05:50:09.675Z,3.63
2017-12-15T05:52:13.164Z,13.60
2017-12-15T05:54:16.598Z,7.93
2017-12-15T05:56:20.095Z,6.87
2017-12-15T05:58:23.529Z,8.33
2017-12-15T06:00:26.968Z,8.10
2017-12-15T06:02:30.451Z,8.70
2017-12-15T06:04:33.908Z,8.93
2017-12-15T06:06:37.349Z,8.37
2017-12-15T06:08:40.800Z,10.63
2017-12-15T06:10:44.243Z,6.33
2017-12-15T06:12:47.731Z,6.50
2017-12-15T06:14:51.173Z,9.03
2017-12-15T06:16:55.277Z,11.17
2017-12-15T06:18:58.689Z,3.90
2017-12-15T06:21:02.874Z,7.87
2017-12-15T06:23:06.318Z,3.67
2017-12-15T06:25:09.723Z,4.73
2017-12-15T06:27:13.178Z,14.03
2017-12-15T06:29:16.598Z,11.27
2017-12-15T06:31:20.078Z,6.03
2017-12-15T06:33:23.587Z,14.63
2017-12-15T06:35:27.066Z,8.93
2017-12-15T06:37:31.282Z,6.87
2017-12-15T06:39:34.913Z,8.00
2017-12-15T06:41:38.379Z,10.77
2017-12-15T06:43:41.901Z,9.50
2017-12-15T06:45:46.157Z,6.90
2017-12-15T06:47:49.680Z,8.03
2017-12-15T06:49:53.139Z,27.43
2017-12-15T06:51:56.775Z,15.10
2017-12-15T06:54:00.321Z,25.43
2017-12-15T06:56:03.787Z,19.60
2017-12-15T06:58:07.330Z,8.37
2017-12-15T07:00:10.779Z,16.80
2017-12-15T07:02:14.260Z,10.40
2017-12-15T07:04:17.755Z,7.00
2017-12-15T07:06:21.252Z,8.50
2017-12-15T07:08:24.812Z,5.80
2017-12-15T07:10:29.036Z,9.40
2017-12-15T07:12:32.494Z,6.23
2017-12-15T07:14:36.019Z,18.30
2017-12-15T07:16:40.251Z,17.43
2017-12-15T07:18:43.773Z,9.43
2017-12-15T07:20:47.313Z,8.40
2017-12-15T07:22:51.529Z,6.57
2017-12-15T07:24:55.024Z,7.73
2017-12-15T07:26:59.239Z,5.30
2017-12-15T07:29:03.660Z,7.70
2017-12-15T07:31:07.132Z,4.77
2017-12-15T07:33:11.402Z,13.47
2017-12-15T07:35:14.956Z,5.30
2017-12-15T07:37:19.270Z,4.80
2017-12-15T07:39:23.487Z,6.20
2017-12-15T07:41:28.656Z,9.73
2017-12-15T07:43:32.156Z,7.43
2017-12-15T07:45:36.913Z,5.80
2017-12-15T07:47:40.344Z,6.80
2017-12-15T07:49:44.222Z,11.07
2017-12-15T07:51:47.782Z,4.20
2017-12-15T07:53:51.298Z,7.00
2017-12-15T07:55:54.780Z,3.00
2017-12-15T07:57:58.220Z,8.53
2017-12-15T08:00:02.445Z,6.30
2017-12-15T08:02:06.119Z,3.27
2017-12-15T08:04:10.459Z,5.47
2017-12-15T08:06:14.707Z,5.70
2017-12-15T08:08:19.884Z,6.20
2017-12-15T08:10:25.739Z,3.33
2017-12-15T08:12:31.244Z,7.10
2017-12-15T08:14:36.212Z,4.53
2017-12-15T08:16:43.926Z,4.30
2017-12-15T08:18:47.507Z,6.50
2017-12-15T08:20:51.754Z,3.30
2017-12-15T08:22:55.237Z,9.87
2017-12-15T08:24:58.664Z,3.67
2017-12-15T08:27:02.175Z,3.30
2017-12-15T08:29:05.696Z,2.63
2017-12-15T08:31:10.039Z,2.33
2017-12-15T08:33:13.504Z,5.03
2017-12-15T08:35:17.766Z,4.73
2017-12-15T08:37:21.248Z,1.87
2017-12-15T08:39:24.692Z,3.07
2017-12-15T08:41:28.149Z,2.33
2017-12-15T08:43:31.649Z,2.70
2017-12-15T08:45:35.093Z,4.33
2017-12-15T08:47:38.615Z,1.93
2017-12-15T08:49:43.060Z,2.50
2017-12-15T08:51:46.578Z,2.10
2017-12-15T08:53:50.814Z,4.63
2017-12-15T08:55:54.267Z,7.83
2017-12-15T08:57:58.500Z,4.30
2017-12-15T09:00:02.782Z,3.13
2017-12-15T09:02:07.016Z,3.03
2017-12-15T09:04:16.852Z,3.37
2017-12-15T09:06:20.294Z,3.20
2017-12-15T09:08:23.805Z,4.10
2017-12-15T09:10:27.232Z,8.73
2017-12-15T09:12:30.681Z,3.40
2017-12-15T09:14:34.177Z,2.80
2017-12-15T09:16:37.661Z,2.07
2017-12-15T09:18:42.320Z,3.13
2017-12-15T09:20:46.631Z,2.00
2017-12-15T09:22:50.109Z,3.17
2017-12-15T09:24:53.628Z,2.97
2017-12-15T09:26:57.046Z,2.50
2017-12-15T09:29:00.514Z,1.93
2017-12-15T09:31:03.966Z,4.50
2017-12-15T09:33:07.600Z,1.77
2017-12-15T09:35:11.513Z,1.77
2017-12-15T09:37:15.407Z,2.00
2017-12-15T09:39:18.935Z,2.10
2017-12-15T09:41:22.761Z,4.63
2017-12-15T09:43:27.075Z,3.27
2017-12-15T09:45:31.373Z,2.10
2017-12-15T09:47:34.985Z,2.53
2017-12-15T09:49:39.290Z,2.70
2017-12-15T09:51:43.604Z,3.70
2017-12-15T09:53:47.816Z,4.50
2017-12-15T09:55:52.067Z,2.00
2017-12-15T09:57:55.505Z,3.03
2017-12-15T09:59:58.965Z,3.60
2017-12-15T10:02:02.509Z,2.63
2017-12-15T10:04:06.734Z,4.40
2017-12-15T10:06:10.457Z,2.43
2017-12-15T10:08:14.054Z,2.37
2017-12-15T10:10:17.587Z,4.10
2017-12-15T10:12:21.260Z,1.90
2017-12-15T10:14:24.728Z,2.53
2017-12-15T10:16:28.279Z,2.60
2017-12-15T10:18:31.876Z,2.20
2017-12-15T10:20:35.373Z,2.50
2017-12-15T10:22:39.637Z,2.90
2017-12-15T10:24:43.884Z,2.90
2017-12-15T10:26:52.624Z,2.60
2017-12-15T10:28:56.968Z,3.50
2017-12-15T10:31:01.150Z,1.90
2017-12-15T10:33:04.625Z,2.67
2017-12-15T10:35:08.110Z,2.00
2017-12-15T10:37:11.576Z,2.03
2017-12-15T10:39:15.056Z,2.97
2017-12-15T10:41:18.936Z,2.40
2017-12-15T10:43:22.474Z,3.00
2017-12-15T10:45:25.964Z,2.27
2017-12-15T10:47:29.370Z,1.63
2017-12-15T10:49:32.847Z,1.73
2017-12-15T10:51:36.286Z,2.23
2017-12-15T10:53:39.697Z,2.20
2017-12-15T10:55:43.143Z,1.40
2017-12-15T10:57:46.592Z,1.57
2017-12-15T10:59:50.099Z,1.50
2017-12-15T11:01:53.518Z,3.53
2017-12-15T11:03:56.957Z,2.53
2017-12-15T11:06:00.407Z,1.87
2017-12-15T11:08:03.872Z,3.33
2017-12-15T11:10:08.082Z,2.10
2017-12-15T11:12:12.332Z,1.90
2017-12-15T11:14:15.735Z,1.70
2017-12-15T11:16:19.208Z,2.17
2017-12-15T11:18:22.673Z,1.57
2017-12-15T11:20:26.110Z,1.70
2017-12-15T11:22:29.596Z,3.40
2017-12-15T11:24:33.053Z,1.60
2017-12-15T11:26:36.552Z,1.93
2017-12-15T11:28:40.799Z,1.60
2017-12-15T11:30:44.310Z,1.60
2017-12-15T11:32:47.787Z,1.40
2017-12-15T11:34:51.272Z,2.90
2017-12-15T11:36:54.710Z,2.73
2017-12-15T11:38:58.290Z,1.83
2017-12-15T11:41:01.746Z,7.63
2017-12-15T11:43:05.257Z,3.23
2017-12-15T11:45:08.720Z,10.33
2017-12-15T11:47:12.268Z,12.27
2017-12-15T11:49:15.761Z,8.70
2017-12-15T11:51:21.416Z,20.50
2017-12-15T11:53:25.296Z,12.30
2017-12-15T11:55:28.749Z,5.80
2017-12-15T11:57:32.957Z,2.90
2017-12-15T11:59:36.422Z,2.10
2017-12-15T12:01:39.909Z,1.50
2017-12-15T12:03:43.364Z,1.40
2017-12-15T12:05:46.791Z,1.70
2017-12-15T12:07:50.230Z,2.47
2017-12-15T12:09:54.472Z,2.40
2017-12-15T12:11:59.451Z,2.73
2017-12-15T12:14:04.372Z,2.60
2017-12-15T12:16:07.852Z,2.30
2017-12-15T12:18:12.166Z,3.30
2017-12-15T12:20:15.681Z,1.90
2017-12-15T12:22:19.960Z,2.03
2017-12-15T12:24:23.450Z,3.97
2017-12-15T12:26:26.879Z,2.87
2017-12-15T12:28:30.403Z,5.50
2017-12-15T12:30:33.877Z,5.30
2017-12-15T12:32:38.153Z,2.57
2017-12-15T12:34:41.623Z,5.57
2017-12-15T12:36:45.682Z,5.07
2017-12-15T12:38:50.474Z,7.43
2017-12-15T12:40:54.205Z,4.60
2017-12-15T12:42:57.619Z,5.30
2017-12-15T12:45:01.098Z,5.50
2017-12-15T12:47:04.511Z,5.40
2017-12-15T12:49:07.951Z,5.67
2017-12-15T12:51:11.406Z,6.23
2017-12-15T12:53:14.828Z,5.43
2017-12-15T12:55:18.272Z,13.00
2017-12-15T12:57:21.716Z,17.47
2017-12-15T12:59:25.159Z,7.97
2017-12-15T13:01:28.618Z,9.53
2017-12-15T13:03:32.048Z,6.83
2017-12-15T13:05:35.514Z,11.07
2017-12-15T13:07:39.756Z,9.43
2017-12-15T13:09:43.985Z,7.53
2017-12-15T13:11:47.464Z,7.60
2017-12-15T13:13:53.330Z,6.50
2017-12-15T13:15:57.701Z,8.03
2017-12-15T13:18:01.945Z,2.57
2017-12-15T13:20:05.407Z,5.60
2017-12-15T13:22:08.863Z,3.23
2017-12-15T13:24:13.950Z,4.10
2017-12-15T13:26:17.772Z,4.30
2017-12-15T13:28:22.261Z,6.20
2017-12-15T13:30:26.605Z,8.00
2017-12-15T13:32:30.026Z,5.37
2017-12-15T13:34:34.234Z,7.40
2017-12-15T13:36:38.420Z,3.63
2017-12-15T13:38:42.669Z,2.97
2017-12-15T13:40:46.077Z,9.20
2017-12-15T13:42:49.527Z,7.03
2017-12-15T13:44:53.806Z,6.80
2017-12-15T13:46:57.245Z,7.10
2017-12-15T13:49:00.709Z,5.10
2017-12-15T13:51:04.177Z,7.10
2017-12-15T13:53:08.452Z,8.47
2017-12-15T13:55:13.921Z,5.50
2017-12-15T13:57:17.950Z,7.37
2017-12-15T13:59:21.532Z,4.17
2017-12-15T14:01:25.356Z,7.43
2017-12-15T14:03:29.125Z,5.53
2017-12-15T14:05:33.429Z,10.60
2017-12-15T14:07:36.989Z,9.63
2017-12-15T14:09:42.125Z,12.13
2017-12-15T14:11:48.733Z,7.53
2017-12-15T14:13:52.220Z,12.60
2017-12-15T14:15:56.691Z,9.63
2017-12-15T14:18:00.131Z,5.30
2017-12-15T14:20:04.102Z,12.07
2017-12-15T14:22:08.835Z,10.70
2017-12-15T14:24:13.396Z,7.57
2017-12-15T14:26:16.876Z,8.40
2017-12-15T14:28:21.291Z,4.63
2017-12-15T14:30:26.182Z,4.30
2017-12-15T14:32:31.061Z,5.13
2017-12-15T14:34:34.838Z,8.60
2017-12-15T14:36:38.439Z,5.07
2017-12-15T14:38:44.428Z,10.33
2017-12-15T14:40:48.527Z,8.97
2017-12-15T14:42:52.221Z,9.27
2017-12-15T14:44:57.134Z,7.50
2017-12-15T14:47:01.929Z,10.17
2017-12-15T14:49:07.518Z,6.77
2017-12-15T14:51:11.315Z,9.13
2017-12-15T14:53:14.795Z,7.50
2017-12-15T14:55:18.286Z,13.90
2017-12-15T14:57:22.761Z,22.60
2017-12-15T14:59:26.208Z,11.00
2017-12-15T15:01:29.626Z,17.63
2017-12-15T15:03:33.103Z,16.77
2017-12-15T15:05:36.530Z,7.80
2017-12-15T15:07:40.643Z,14.20
2017-12-15T15:09:45.005Z,14.83
2017-12-15T15:11:49.769Z,7.83
2017-12-15T15:13:54.158Z,10.93
2017-12-15T15:15:58.602Z,13.33
2017-12-15T15:18:02.846Z,12.37
2017-12-15T15:20:07.057Z,14.80
2017-12-15T15:22:12.520Z,12.60
2017-12-15T15:24:17.504Z,9.73
2017-12-15T15:26:21.295Z,14.77
2017-12-15T15:28:25.374Z,9.27
2017-12-15T15:30:29.107Z,16.40
2017-12-15T15:32:32.572Z,8.40
2017-12-15T15:34:36.097Z,9.23
2017-12-15T15:36:39.559Z,12.10
2017-12-15T15:38:43.636Z,20.47
2017-12-15T15:40:48.579Z,15.67
2017-12-15T15:42:52.313Z,15.70
2017-12-15T15:44:57.490Z,14.53
2017-12-15T15:47:02.060Z,18.20
2017-12-15T15:49:05.708Z,15.27
2017-12-15T15:51:09.323Z,11.17
2017-12-15T15:53:12.903Z,11.70
2017-12-15T15:55:17.227Z,9.33
2017-12-15T15:57:21.016Z,11.17
2017-12-15T15:59:25.344Z,13.20
2017-12-15T16:01:29.972Z,18.00
2017-12-15T16:03:34.386Z,20.67
2017-12-15T16:05:39.586Z,14.43
2017-12-15T16:07:43.434Z,6.97
2017-12-15T16:09:46.903Z,14.80
2017-12-15T16:11:50.479Z,14.43
2017-12-15T16:13:53.936Z,18.43
2017-12-15T16:15:57.475Z,9.00
2017-12-15T16:18:00.963Z,11.40
2017-12-15T16:20:04.374Z,45.20
2017-12-15T16:22:07.902Z,49.73
2017-12-15T16:24:11.378Z,43.33
2017-12-15T16:26:15.702Z,30.67
2017-12-15T16:28:19.211Z,36.17
2017-12-15T16:30:22.667Z,23.80
2017-12-15T16:32:26.933Z,21.87
2017-12-15T16:34:30.386Z,25.60
2017-12-15T16:36:33.913Z,20.73
2017-12-15T16:38:37.364Z,23.87
2017-12-15T16:40:40.818Z,13.90
2017-12-15T16:42:44.343Z,17.23
2017-12-15T16:44:48.579Z,19.03
2017-12-15T16:46:52.200Z,9.63
2017-12-15T16:48:55.724Z,18.93
2017-12-15T16:51:00.078Z,17.33
2017-12-15T16:53:03.586Z,11.50
2017-12-15T16:55:07.075Z,24.17
2017-12-15T16:57:11.237Z,21.90
2017-12-15T16:59:14.818Z,18.00
2017-12-15T17:01:19.617Z,16.77
2017-12-15T17:03:24.406Z,13.87
2017-12-15T17:05:27.847Z,17.93
2017-12-15T17:07:31.336Z,16.37
2017-12-15T17:09:34.811Z,16.23
2017-12-15T17:11:38.322Z,11.93
2017-12-15T17:13:42.587Z,10.57
2017-12-15T17:15:46.855Z,13.43
2017-12-15T17:17:50.350Z,7.67
2017-12-15T17:19:53.790Z,12.67
2017-12-15T17:21:57.229Z,16.73
2017-12-15T17:24:00.756Z,12.33
2017-12-15T17:26:04.235Z,11.60
2017-12-15T17:28:07.808Z,12.83
2017-12-15T17:30:11.282Z,14.97
2017-12-15T17:32:15.580Z,16.17
2017-12-15T17:34:19.860Z,16.73
2017-12-15T17:36:23.342Z,22.43
2017-12-15T17:38:26.869Z,19.27
2017-12-15T17:40:30.369Z,18.03
2017-12-15T17:42:35.946Z,15.13
2017-12-15T17:44:40.219Z,16.03
2017-12-15T17:46:43.740Z,16.13
2017-12-15T17:48:48.308Z,20.03
2017-12-15T17:50:52.712Z,11.37
2017-12-15T17:52:56.169Z,14.87
2017-12-15T17:54:59.688Z,17.80
2017-12-15T17:57:03.198Z,15.53
2017-12-15T17:59:06.844Z,19.73
2017-12-15T18:01:10.317Z,16.30
2017-12-15T18:03:13.761Z,20.67
2017-12-15T18:05:17.207Z,22.93
2017-12-15T18:07:20.682Z,14.67
2017-12-15T18:09:24.145Z,38.90
2017-12-15T18:11:28.450Z,21.60
2017-12-15T18:13:32.663Z,27.53
2017-12-15T18:15:36.133Z,22.00
2017-12-15T18:17:40.372Z,23.40
2017-12-15T18:19:44.645Z,26.83
2017-12-15T18:21:48.095Z,23.60
2017-12-15T18:23:52.332Z,24.87
2017-12-15T18:25:55.819Z,22.70
2017-12-15T18:27:59.259Z,27.63
2017-12-15T18:30:03.530Z,24.80
2017-12-15T18:32:07.030Z,22.20
2017-12-15T18:34:10.499Z,21.90
2017-12-15T18:36:14.739Z,26.40
2017-12-15T18:38:19.670Z,27.30
2017-12-15T18:40:24.040Z,35.03
2017-12-15T18:42:29.185Z,31.50
2017-12-15T18:44:32.946Z,27.97
2017-12-15T18:46:36.460Z,28.83
2017-12-15T18:48:39.948Z,31.70
2017-12-15T18:50:43.402Z,24.00
2017-12-15T18:52:46.893Z,22.30
2017-12-15T18:54:50.350Z,18.30
2017-12-15T18:56:54.607Z,12.63
2017-12-15T18:58:58.143Z,17.37
2017-12-15T19:01:01.611Z,17.37
2017-12-15T19:03:05.127Z,23.23
2017-12-15T19:05:09.420Z,17.47
2017-12-15T19:07:12.924Z,27.80
2017-12-15T19:09:16.382Z,14.50
2017-12-15T19:11:19.893Z,11.43
2017-12-15T19:13:23.426Z,18.33
2017-12-15T19:15:26.873Z,15.23
2017-12-15T19:17:30.363Z,14.17
2017-12-15T19:19:33.804Z,10.40
2017-12-15T19:21:37.272Z,10.23
2017-12-15T19:23:40.770Z,13.20
2017-12-15T19:25:44.266Z,13.90
2017-12-15T19:27:47.785Z,9.70
2017-12-15T19:29:52.016Z,11.50
2017-12-15T19:31:55.982Z,13.00
2017-12-15T19:33:59.483Z,9.53
2017-12-15T19:36:02.923Z,9.33
2017-12-15T19:38:07.132Z,10.70
2017-12-15T19:40:10.625Z,11.40
2017-12-15T19:42:14.126Z,10.90
2017-12-15T19:44:17.605Z,12.70
2017-12-15T19:46:21.120Z,14.80
2017-12-15T19:48:24.553Z,14.30
2017-12-15T19:50:28.742Z,14.87
2017-12-15T19:52:35.107Z,13.43
2017-12-15T19:54:38.639Z,12.47
2017-12-15T19:56:42.130Z,16.10
2017-12-15T19:58:45.629Z,15.20
2017-12-15T20:00:49.205Z,14.67
2017-12-15T20:02:52.688Z,13.90
2017-12-15T20:04:56.650Z,17.33
2017-12-15T20:07:00.118Z,6.93
2017-12-15T20:09:03.580Z,13.60
2017-12-15T20:11:08.002Z,17.90
2017-12-15T20:13:11.493Z,12.77
2017-12-15T20:15:15.026Z,19.33
2017-12-15T20:17:18.511Z,12.33
2017-12-15T20:19:22.027Z,14.80
2017-12-15T20:21:25.559Z,35.20
2017-12-15T20:23:29.010Z,28.27
2017-12-15T20:25:33.302Z,31.03
2017-12-15T20:27:36.750Z,31.37
2017-12-15T20:29:40.221Z,28.70
2017-12-15T20:31:43.709Z,31.83
2017-12-15T20:33:47.170Z,28.97
2017-12-15T20:35:50.745Z,28.90
2017-12-15T20:37:54.972Z,43.00
2017-12-15T20:39:58.483Z,25.33
2017-12-15T20:42:02.008Z,31.80
2017-12-15T20:44:05.512Z,36.70
2017-12-15T20:46:09.783Z,31.73
2017-12-15T20:48:14.052Z,33.67
2017-12-15T20:50:17.520Z,40.17
2017-12-15T20:52:21.022Z,39.53
2017-12-15T20:54:24.568Z,47.17
2017-12-15T20:56:28.009Z,35.73
2017-12-15T20:58:32.240Z,30.07
2017-12-15T21:00:35.718Z,30.57
2017-12-15T21:02:40.014Z,36.73
2017-12-15T21:04:44.264Z,30.90
2017-12-15T21:06:47.762Z,25.27
2017-12-15T21:08:51.262Z,32.60
2017-12-15T21:10:54.787Z,30.03
2017-12-15T21:12:59.130Z,27.10
2017-12-15T21:15:03.360Z,27.77
2017-12-15T21:17:06.902Z,28.73
2017-12-15T21:19:10.956Z,23.50
2017-12-15T21:21:16.027Z,32.43
2017-12-15T21:23:19.717Z,29.07
2017-12-15T21:25:24.645Z,23.30
2017-12-15T21:27:28.339Z,22.53
2017-12-15T21:29:31.941Z,19.53
2017-12-15T21:31:37.215Z,20.53
2017-12-15T21:33:41.397Z,22.87
2017-12-15T21:35:44.954Z,35.23
2017-12-15T21:37:48.420Z,23.67
2017-12-15T21:39:52.668Z,41.13
2017-12-15T21:41:56.898Z,35.53
2017-12-15T21:44:00.398Z,37.10
2017-12-15T21:46:03.890Z,28.30
2017-12-15T21:48:07.460Z,17.67
2017-12-15T21:50:12.185Z,23.07
2017-12-15T21:52:15.716Z,22.03
2017-12-15T21:54:19.196Z,27.00
2017-12-15T21:56:22.782Z,27.10
2017-12-15T21:58:26.258Z,26.03
2017-12-15T22:00:29.748Z,28.50
2017-12-15T22:02:33.216Z,23.60
2017-12-15T22:04:36.703Z,20.67
2017-12-15T22:06:40.177Z,14.70
2017-12-15T22:08:43.620Z,16.77
2017-12-15T22:10:47.869Z,17.43
2017-12-15T22:12:51.325Z,14.00
2017-12-15T22:14:55.603Z,12.63
2017-12-15T22:16:59.055Z,12.73
2017-12-15T22:19:02.505Z,12.07
2017-12-15T22:21:05.978Z,11.33
2017-12-15T22:23:09.419Z,11.70
2017-12-15T22:25:13.725Z,9.83
2017-12-15T22:27:17.164Z,8.60
2017-12-15T22:29:20.584Z,7.80
2017-12-15T22:31:24.073Z,11.30
2017-12-15T22:33:27.553Z,14.23
2017-12-15T22:35:31.190Z,10.40
2017-12-15T22:37:35.468Z,6.97
2017-12-15T22:39:38.895Z,8.70
2017-12-15T22:41:42.407Z,8.10
2017-12-15T22:43:45.842Z,11.53
2017-12-15T22:45:49.313Z,6.10
2017-12-15T22:47:53.573Z,7.97
2017-12-15T22:49:57.060Z,5.73
2017-12-15T22:52:00.538Z,6.93
2017-12-15T22:54:04.028Z,5.70
2017-12-15T22:56:07.500Z,5.93
2017-12-15T22:58:11.765Z,8.20
2017-12-15T23:00:15.233Z,7.43
2017-12-15T23:02:18.721Z,3.20
2017-12-15T23:04:22.159Z,5.23
2017-12-15T23:06:25.634Z,3.03
2017-12-15T23:08:29.129Z,4.10
2017-12-15T23:10:32.567Z,3.70
2017-12-15T23:12:36.121Z,5.13
2017-12-15T23:14:39.538Z,2.73
2017-12-15T23:16:43.002Z,3.30
2017-12-15T23:18:46.473Z,3.33
2017-12-15T23:20:49.935Z,4.60
2017-12-15T23:22:53.395Z,5.03
2017-12-15T23:24:56.810Z,2.57
2017-12-15T23:27:00.218Z,3.87
2017-12-15T23:29:04.463Z,7.97
2017-12-15T23:31:08.645Z,3.73
2017-12-15T23:33:12.935Z,3.50
2017-12-15T23:35:16.385Z,4.13
2017-12-15T23:37:19.827Z,4.50
2017-12-15T23:39:23.342Z,4.50
2017-12-15T23:41:26.780Z,3.40
2017-12-15T23:43:30.258Z,4.80
2017-12-15T23:45:33.705Z,5.07
2017-12-15T23:47:37.930Z,4.40
2017-12-15T23:49:41.517Z,4.13
2017-12-15T23:51:45.731Z,7.20
2017-12-15T23:53:50.023Z,5.70
2017-12-15T23:56:05.287Z,8.03
2017-12-15T23:58:08.706Z,3.80
